Time;durP1;ratioP1;P1;durP2;ratioP2;P2;SDS_P1;SDS_P2;PMS_P1;PMS_P2;Temp;Humidity;BMP_temperature;BMP_pressure;BME280_temperature;BME280_humidity;BME280_pressure;Samples;Min_cycle;Max_cycle;Signal;HPM_P1;HPM_P2
2021/10/23 00:00:43;;;;;;;;;;;23.50;99.90;;;;;;5092963;28;19966;-72
2021/10/23 00:03:10;;;;;;;;;;;23.50;99.90;;;;;;5093016;28;20386;-73
2021/10/23 00:05:37;;;;;;;;;;;23.50;99.90;;;;;;5092770;28;20459;-74
2021/10/23 00:08:04;;;;;;;;;;;23.50;99.90;;;;;;5093213;28;20306;-73
2021/10/23 00:10:30;;;;;;;;;;;23.50;99.90;;;;;;5091657;28;19908;-71
2021/10/23 00:12:57;;;;;;;;;;;23.60;99.90;;;;;;5093014;28;19912;-72
2021/10/23 00:15:24;;;;;;;;;;;23.70;99.90;;;;;;5092423;28;20049;-73
2021/10/23 00:17:50;;;;;;;;;;;23.90;99.90;;;;;;5092659;28;19912;-71
2021/10/23 00:20:17;;;;;;;;;;;24.00;99.90;;;;;;5092451;28;19912;-71
2021/10/23 00:22:44;;;;;;;;;;;24.00;99.90;;;;;;5092471;28;19915;-71
2021/10/23 00:25:11;;;;;;;;;;;24.00;99.90;;;;;;5092559;28;19916;-70
2021/10/23 00:27:37;;;;;;;;;;;24.10;99.90;;;;;;5092560;28;19999;-74
2021/10/23 00:30:05;;;;;;;;;;;24.20;99.90;;;;;;5092597;28;19919;-75
2021/10/23 00:32:31;;;;;;;;;;;24.30;99.90;;;;;;5092800;28;20373;-72
2021/10/23 00:34:59;;;;;;;;;;;24.50;99.90;;;;;;5092418;28;19912;-71
2021/10/23 00:37:26;;;;;;;;;;;24.50;99.90;;;;;;5091642;28;20319;-74
2021/10/23 00:39:52;;;;;;;;;;;24.70;99.90;;;;;;5092420;28;20287;-72
2021/10/23 00:42:19;;;;;;;;;;;24.80;99.90;;;;;;5092609;28;19953;-71
2021/10/23 00:44:46;;;;;;;;;;;25.20;99.90;;;;;;5093361;28;20028;-71
2021/10/23 00:47:17;;;;;;;;;;;25.40;99.90;;;;;;5092542;28;20304;-74
2021/10/23 00:49:45;;;;;;;;;;;25.70;99.90;;;;;;5092295;28;19908;-74
2021/10/23 00:52:12;;;;;;;;;;;25.80;99.90;;;;;;5092502;28;20388;-74
2021/10/23 00:54:39;;;;;;;;;;;26.00;99.90;;;;;;5092544;28;19915;-73
2021/10/23 00:57:07;;;;;;;;;;;26.00;99.90;;;;;;5092405;28;20370;-71
2021/10/23 00:59:34;;;;;;;;;;;26.40;99.90;;;;;;5092193;28;19915;-72
2021/10/23 01:02:01;;;;;;;;;;;26.50;99.90;;;;;;5092391;28;20002;-72
2021/10/23 01:04:28;;;;;;;;;;;26.20;99.90;;;;;;5091958;28;19970;-72
2021/10/23 01:06:55;;;;;;;;;;;26.20;99.90;;;;;;5092146;28;20342;-71
2021/10/23 01:09:22;;;;;;;;;;;26.20;99.90;;;;;;5092181;28;19979;-71
2021/10/23 01:11:49;;;;;;;;;;;26.70;99.90;;;;;;5090632;28;19915;-71
2021/10/23 01:14:20;;;;;;;;;;;26.90;99.90;;;;;;5092211;28;19908;-72
2021/10/23 01:16:48;;;;;;;;;;;26.50;99.90;;;;;;5091993;28;19912;-71
2021/10/23 01:19:15;;;;;;;;;;;26.50;99.90;;;;;;5091765;28;20327;-72
2021/10/23 01:21:43;;;;;;;;;;;26.40;99.90;;;;;;5091985;28;20011;-72
2021/10/23 01:24:10;;;;;;;;;;;26.30;99.90;;;;;;5092132;28;19912;-72
2021/10/23 01:26:37;;;;;;;;;;;26.40;99.90;;;;;;5092065;28;19955;-72
2021/10/23 01:29:04;;;;;;;;;;;26.50;99.90;;;;;;5092034;28;19909;-71
2021/10/23 01:31:31;;;;;;;;;;;26.30;99.90;;;;;;5092824;28;19912;-72
2021/10/23 01:33:58;;;;;;;;;;;26.00;99.90;;;;;;5095680;28;19931;-72
2021/10/23 01:36:25;;;;;;;;;;;25.70;99.90;;;;;;5095535;28;20251;-73
2021/10/23 01:38:51;;;;;;;;;;;25.60;99.90;;;;;;5095716;28;19969;-71
2021/10/23 01:41:18;;;;;;;;;;;25.60;99.90;;;;;;5095664;28;19915;-72
2021/10/23 01:43:45;;;;;;;;;;;25.60;99.90;;;;;;5095349;28;19920;-72
2021/10/23 01:46:11;;;;;;;;;;;25.50;99.90;;;;;;5095400;28;19912;-71
2021/10/23 01:48:38;;;;;;;;;;;25.30;99.90;;;;;;5095139;28;20415;-72
2021/10/23 01:51:05;;;;;;;;;;;25.30;99.90;;;;;;5095060;28;19934;-72
2021/10/23 01:53:32;;;;;;;;;;;25.10;99.90;;;;;;5095030;28;19908;-71
2021/10/23 01:56:02;;;;;;;;;;;25.00;99.90;;;;;;5095000;28;19924;-71
2021/10/23 01:58:30;;;;;;;;;;;25.00;99.90;;;;;;5095396;28;19969;-72
2021/10/23 02:00:57;;;;;;;;;;;25.10;99.90;;;;;;5095284;28;19919;-71
2021/10/23 02:03:23;;;;;;;;;;;25.10;99.90;;;;;;5095004;28;19908;-71
2021/10/23 02:05:50;;;;;;;;;;;25.10;99.90;;;;;;5095018;28;20006;-72
2021/10/23 02:08:17;;;;;;;;;;;25.10;99.90;;;;;;5095352;28;19912;-73
2021/10/23 02:10:43;;;;;;;;;;;25.10;99.90;;;;;;5095145;28;20412;-71
2021/10/23 02:13:10;;;;;;;;;;;24.90;99.90;;;;;;5095015;28;19908;-71
2021/10/23 02:15:36;;;;;;;;;;;24.90;99.90;;;;;;5095016;28;19919;-73
2021/10/23 02:18:03;;;;;;;;;;;24.90;99.90;;;;;;5095103;28;19908;-72
2021/10/23 02:20:34;;;;;;;;;;;24.70;99.90;;;;;;5094873;28;19908;-71
2021/10/23 02:23:01;;;;;;;;;;;24.60;99.90;;;;;;5095109;28;19908;-71
2021/10/23 02:25:28;;;;;;;;;;;24.50;99.90;;;;;;5095954;28;19916;-72
2021/10/23 02:27:54;;;;;;;;;;;24.70;99.90;;;;;;5095180;28;20279;-71
2021/10/23 02:30:21;;;;;;;;;;;24.80;99.90;;;;;;5095392;28;19995;-74
2021/10/23 02:32:48;;;;;;;;;;;24.70;99.90;;;;;;5095037;28;19916;-73
2021/10/23 02:35:14;;;;;;;;;;;24.60;99.90;;;;;;5095404;28;19908;-72
2021/10/23 02:37:41;;;;;;;;;;;24.70;99.90;;;;;;5094880;28;19908;-73
2021/10/23 02:40:08;;;;;;;;;;;24.80;99.90;;;;;;5095049;28;19908;-72
2021/10/23 02:42:35;;;;;;;;;;;24.80;99.90;;;;;;5094737;28;20434;-73
2021/10/23 02:45:01;;;;;;;;;;;24.60;99.90;;;;;;5094625;28;19983;-72
2021/10/23 02:47:28;;;;;;;;;;;24.60;99.90;;;;;;5093730;28;19915;-73
2021/10/23 02:49:54;;;;;;;;;;;24.50;99.90;;;;;;5094828;28;19962;-75
2021/10/23 02:52:22;;;;;;;;;;;24.60;99.90;;;;;;5095841;28;19916;-73
2021/10/23 02:54:49;;;;;;;;;;;24.60;99.90;;;;;;5095079;28;19916;-73
2021/10/23 02:57:15;;;;;;;;;;;24.70;99.90;;;;;;5094440;28;19950;-73
2021/10/23 02:59:43;;;;;;;;;;;24.60;99.90;;;;;;5094422;28;19908;-74
2021/10/23 03:02:10;;;;;;;;;;;24.60;99.90;;;;;;5094602;28;20374;-75
2021/10/23 03:04:37;;;;;;;;;;;24.60;99.90;;;;;;5094179;28;19987;-73
2021/10/23 03:07:07;;;;;;;;;;;24.60;99.90;;;;;;5093820;28;20212;-73
2021/10/23 03:09:34;;;;;;;;;;;24.70;99.90;;;;;;5093916;28;19908;-73
2021/10/23 03:12:01;;;;;;;;;;;24.60;99.90;;;;;;5088284;28;20363;-73
2021/10/23 03:14:28;;;;;;;;;;;24.60;99.90;;;;;;5092366;28;20362;-73
2021/10/23 03:16:55;;;;;;;;;;;24.60;99.90;;;;;;5094390;28;19915;-71
2021/10/23 03:19:21;;;;;;;;;;;24.50;99.90;;;;;;5093982;28;19952;-72
2021/10/23 03:21:48;;;;;;;;;;;24.50;99.90;;;;;;5093981;28;19916;-75
2021/10/23 03:24:15;;;;;;;;;;;24.40;99.90;;;;;;5093598;28;19919;-73
2021/10/23 03:26:41;;;;;;;;;;;24.30;99.90;;;;;;5093857;28;19912;-72
2021/10/23 03:29:08;;;;;;;;;;;24.30;99.90;;;;;;5093719;28;20278;-71
2021/10/23 03:31:35;;;;;;;;;;;24.30;99.90;;;;;;5093844;28;20350;-72
2021/10/23 03:34:01;;;;;;;;;;;24.20;99.90;;;;;;5093356;28;19980;-72
2021/10/23 03:36:28;;;;;;;;;;;24.10;99.90;;;;;;5093327;28;19916;-72
2021/10/23 03:38:55;;;;;;;;;;;24.10;99.90;;;;;;5092642;28;19908;-71
2021/10/23 03:41:23;;;;;;;;;;;23.90;99.90;;;;;;5091473;28;19912;-72
2021/10/23 03:43:49;;;;;;;;;;;23.90;99.90;;;;;;5092370;28;19916;-72
2021/10/23 03:46:16;;;;;;;;;;;23.90;99.90;;;;;;5090631;28;19912;-73
2021/10/23 03:48:43;;;;;;;;;;;23.70;99.90;;;;;;5095033;28;19931;-71
2021/10/23 03:51:09;;;;;;;;;;;23.80;99.90;;;;;;5096039;28;19912;-72
2021/10/23 03:53:36;;;;;;;;;;;23.80;99.90;;;;;;5107861;28;19912;-72
2021/10/23 03:56:03;;;;;;;;;;;23.80;99.90;;;;;;5112680;28;19915;-73
2021/10/23 03:58:29;;;;;;;;;;;23.90;99.90;;;;;;5113277;28;19965;-72
2021/10/23 04:00:56;;;;;;;;;;;23.90;99.90;;;;;;5113543;28;20006;-72
2021/10/23 04:03:23;;;;;;;;;;;23.90;99.90;;;;;;5111230;28;19919;-72
2021/10/23 04:05:49;;;;;;;;;;;23.90;99.90;;;;;;5112815;28;19916;-72
2021/10/23 04:08:16;;;;;;;;;;;23.90;99.90;;;;;;5112985;28;19908;-73
2021/10/23 04:10:43;;;;;;;;;;;23.90;99.90;;;;;;5113547;28;19911;-73
2021/10/23 04:13:10;;;;;;;;;;;23.70;99.90;;;;;;5113310;28;19915;-73
2021/10/23 04:15:36;;;;;;;;;;;23.80;99.90;;;;;;5112484;28;19907;-72
2021/10/23 04:18:03;;;;;;;;;;;23.80;99.90;;;;;;5113309;28;20378;-71
2021/10/23 04:20:31;;;;;;;;;;;23.80;99.90;;;;;;5095181;28;19962;-73
2021/10/23 04:22:57;;;;;;;;;;;23.70;99.90;;;;;;5090809;28;19915;-72
2021/10/23 04:25:24;;;;;;;;;;;23.70;99.90;;;;;;5092864;28;20394;-73
2021/10/23 04:27:51;;;;;;;;;;;23.90;99.90;;;;;;5092682;28;19923;-73
2021/10/23 04:30:18;;;;;;;;;;;23.70;99.90;;;;;;5085631;28;19919;-73
2021/10/23 04:32:44;;;;;;;;;;;23.70;99.90;;;;;;5091600;28;19908;-73
2021/10/23 04:35:14;;;;;;;;;;;23.60;99.90;;;;;;5091411;28;19970;-72
2021/10/23 04:37:42;;;;;;;;;;;23.60;99.90;;;;;;5091454;28;19916;-73
2021/10/23 04:40:09;;;;;;;;;;;23.60;99.90;;;;;;5091298;28;20150;-72
2021/10/23 04:42:36;;;;;;;;;;;23.50;99.90;;;;;;5087763;28;19915;-72
2021/10/23 04:45:03;;;;;;;;;;;23.50;99.90;;;;;;5087827;28;19916;-73
2021/10/23 04:47:30;;;;;;;;;;;23.40;99.90;;;;;;5092159;28;20003;-72
2021/10/23 04:49:56;;;;;;;;;;;23.40;99.90;;;;;;5090213;28;19923;-72
2021/10/23 04:52:23;;;;;;;;;;;23.40;99.90;;;;;;5092696;28;19984;-72
2021/10/23 04:54:50;;;;;;;;;;;23.40;99.90;;;;;;5074639;28;20239;-73
2021/10/23 04:57:16;;;;;;;;;;;23.50;99.90;;;;;;5090935;28;19924;-72
2021/10/23 04:59:43;;;;;;;;;;;23.70;99.90;;;;;;5092458;28;19908;-72
2021/10/23 05:02:10;;;;;;;;;;;23.60;99.90;;;;;;5092529;28;20003;-72
2021/10/23 05:04:36;;;;;;;;;;;23.60;99.90;;;;;;5092176;28;19916;-73
2021/10/23 05:07:03;;;;;;;;;;;23.40;99.90;;;;;;5094099;28;19914;-72
2021/10/23 05:09:30;;;;;;;;;;;23.40;99.90;;;;;;5096639;28;19990;-73
2021/10/23 05:11:56;;;;;;;;;;;23.50;99.90;;;;;;5097657;28;19915;-72
2021/10/23 05:14:23;;;;;;;;;;;23.50;99.90;;;;;;5096299;28;19908;-73
2021/10/23 05:16:51;;;;;;;;;;;23.60;99.90;;;;;;5096598;28;19915;-74
2021/10/23 05:19:17;;;;;;;;;;;23.50;99.90;;;;;;5097082;28;19912;-72
2021/10/23 05:21:44;;;;;;;;;;;23.60;99.90;;;;;;5096704;28;19908;-72
2021/10/23 05:24:11;;;;;;;;;;;23.50;99.90;;;;;;5100039;28;19919;-73
2021/10/23 05:26:37;;;;;;;;;;;23.40;99.90;;;;;;5098365;28;20375;-75
2021/10/23 05:29:04;;;;;;;;;;;23.30;99.90;;;;;;5095905;28;19908;-73
2021/10/23 05:31:31;;;;;;;;;;;23.30;99.90;;;;;;5095766;28;20318;-74
2021/10/23 05:33:57;;;;;;;;;;;23.40;99.90;;;;;;5095632;28;20385;-73
2021/10/23 05:36:24;;;;;;;;;;;23.40;99.90;;;;;;5095552;28;19965;-74
2021/10/23 05:38:51;;;;;;;;;;;23.40;99.90;;;;;;5091289;28;20355;-73
2021/10/23 05:41:18;;;;;;;;;;;23.40;99.90;;;;;;5095617;28;19916;-74
2021/10/23 05:43:44;;;;;;;;;;;23.40;99.90;;;;;;5094533;28;19913;-74
2021/10/23 05:46:13;;;;;;;;;;;23.50;99.90;;;;;;5096330;28;19919;-74
2021/10/23 05:48:40;;;;;;;;;;;23.50;99.90;;;;;;5096551;28;19908;-74
2021/10/23 05:51:06;;;;;;;;;;;23.40;99.90;;;;;;5094619;28;20351;-74
2021/10/23 05:53:33;;;;;;;;;;;23.40;99.90;;;;;;5095902;28;20029;-73
2021/10/23 05:56:00;;;;;;;;;;;23.40;99.90;;;;;;5085594;28;19927;-75
2021/10/23 05:58:29;;;;;;;;;;;23.50;99.90;;;;;;5096790;28;19912;-73
2021/10/23 06:01:07;;;;;;;;;;;23.50;99.90;;;;;;5096082;28;19908;-73
2021/10/23 06:03:36;;;;;;;;;;;23.40;99.90;;;;;;5094785;28;20255;-73
2021/10/23 06:06:07;;;;;;;;;;;23.30;99.90;;;;;;5095833;28;20374;-74
2021/10/23 06:08:35;;;;;;;;;;;23.30;99.90;;;;;;5095218;28;20042;-74
2021/10/23 06:11:01;;;;;;;;;;;23.30;99.90;;;;;;5095578;28;19908;-72
2021/10/23 06:13:28;;;;;;;;;;;23.10;99.90;;;;;;5095537;28;19987;-73
2021/10/23 06:15:55;;;;;;;;;;;23.10;99.90;;;;;;5095021;28;19908;-73
2021/10/23 06:18:21;;;;;;;;;;;23.00;99.90;;;;;;5095036;28;19908;-73
2021/10/23 06:20:48;;;;;;;;;;;23.10;99.90;;;;;;5089219;28;19958;-74
2021/10/23 06:23:15;;;;;;;;;;;22.90;99.90;;;;;;5095539;28;19999;-72
2021/10/23 06:25:41;;;;;;;;;;;22.90;99.90;;;;;;5094795;28;19917;-73
2021/10/23 06:28:08;;;;;;;;;;;22.90;99.90;;;;;;5094732;28;19908;-72
2021/10/23 06:30:35;;;;;;;;;;;22.90;99.90;;;;;;5094972;28;19912;-72
2021/10/23 06:33:01;;;;;;;;;;;22.80;99.90;;;;;;5094758;28;19908;-71
2021/10/23 06:35:28;;;;;;;;;;;22.80;99.90;;;;;;5094623;28;20351;-72
2021/10/23 06:37:55;;;;;;;;;;;22.80;99.90;;;;;;5094408;28;20369;-72
2021/10/23 06:40:21;;;;;;;;;;;22.70;99.90;;;;;;5094417;28;19931;-73
2021/10/23 06:42:48;;;;;;;;;;;22.70;99.90;;;;;;5094609;28;19908;-72
2021/10/23 06:45:16;;;;;;;;;;;22.60;99.90;;;;;;5094438;28;19916;-72
2021/10/23 06:47:43;;;;;;;;;;;22.70;99.90;;;;;;5093661;28;20316;-72
2021/10/23 06:50:10;;;;;;;;;;;22.60;99.90;;;;;;5093378;28;19908;-74
2021/10/23 06:52:37;;;;;;;;;;;22.50;99.90;;;;;;5093425;28;19924;-73
2021/10/23 06:55:05;;;;;;;;;;;22.50;99.90;;;;;;5091749;28;19908;-72
2021/10/23 06:57:31;;;;;;;;;;;22.50;99.90;;;;;;5074637;28;20451;-72
2021/10/23 06:59:58;;;;;;;;;;;22.40;99.90;;;;;;5075039;28;19917;-74
2021/10/23 07:02:25;;;;;;;;;;;22.30;99.90;;;;;;5073894;28;20358;-75
2021/10/23 07:04:52;;;;;;;;;;;22.40;99.90;;;;;;5073946;28;19964;-75
2021/10/23 07:07:19;;;;;;;;;;;22.30;99.90;;;;;;5074133;28;19977;-74
2021/10/23 07:09:46;;;;;;;;;;;22.40;99.90;;;;;;5073908;28;19915;-73
2021/10/23 07:12:12;;;;;;;;;;;22.40;99.90;;;;;;5074097;28;19955;-73
2021/10/23 07:14:39;;;;;;;;;;;22.20;99.90;;;;;;5074202;28;19966;-74
2021/10/23 07:17:06;;;;;;;;;;;22.20;99.90;;;;;;5073244;28;20004;-74
2021/10/23 07:19:32;;;;;;;;;;;22.20;99.90;;;;;;5073660;28;20094;-75
2021/10/23 07:21:59;;;;;;;;;;;22.20;99.90;;;;;;5074529;28;19908;-75
2021/10/23 07:24:26;;;;;;;;;;;22.20;99.90;;;;;;5075522;28;19926;-74
2021/10/23 07:26:52;;;;;;;;;;;22.10;99.90;;;;;;5074943;28;19947;-74
2021/10/23 07:29:19;;;;;;;;;;;22.10;99.90;;;;;;5073844;28;19909;-72
2021/10/23 07:31:46;;;;;;;;;;;22.10;99.90;;;;;;5073912;28;20387;-73
2021/10/23 07:34:12;;;;;;;;;;;22.10;99.90;;;;;;5074010;28;19920;-74
2021/10/23 07:36:39;;;;;;;;;;;22.10;99.90;;;;;;5074682;28;19908;-74
2021/10/23 07:39:06;;;;;;;;;;;22.10;99.90;;;;;;5074527;28;19944;-74
2021/10/23 07:41:38;;;;;;;;;;;22.10;99.90;;;;;;5074188;28;19908;-72
2021/10/23 07:44:05;;;;;;;;;;;22.10;99.90;;;;;;5074496;28;20259;-73
2021/10/23 07:46:32;;;;;;;;;;;22.00;99.90;;;;;;5074210;28;20006;-72
2021/10/23 07:48:59;;;;;;;;;;;22.00;99.90;;;;;;5074062;28;19915;-72
2021/10/23 07:51:26;;;;;;;;;;;22.00;99.90;;;;;;5073984;28;19915;-74
2021/10/23 07:53:54;;;;;;;;;;;22.00;99.90;;;;;;5073341;28;19912;-73
2021/10/23 07:56:20;;;;;;;;;;;22.00;99.90;;;;;;5094325;28;19983;-74
2021/10/23 07:58:47;;;;;;;;;;;22.00;99.90;;;;;;5094725;28;20355;-74
2021/10/23 08:01:15;;;;;;;;;;;22.00;99.90;;;;;;5093663;28;20371;-75
2021/10/23 08:03:42;;;;;;;;;;;22.00;99.90;;;;;;5093965;28;19908;-72
2021/10/23 08:06:10;;;;;;;;;;;22.00;99.90;;;;;;5093126;28;19968;-74
2021/10/23 08:08:37;;;;;;;;;;;21.90;99.90;;;;;;5081529;28;19948;-73
2021/10/23 08:11:04;;;;;;;;;;;21.90;99.90;;;;;;5073351;28;19909;-73
2021/10/23 08:13:32;;;;;;;;;;;21.90;99.90;;;;;;5073673;28;20003;-72
2021/10/23 08:15:59;;;;;;;;;;;21.80;99.90;;;;;;5075172;28;19954;-74
2021/10/23 08:18:25;;;;;;;;;;;21.80;99.90;;;;;;5074311;28;19908;-74
2021/10/23 08:20:52;;;;;;;;;;;21.80;99.90;;;;;;5072836;28;19909;-72
2021/10/23 08:23:19;;;;;;;;;;;21.80;99.90;;;;;;5076893;28;20393;-74
2021/10/23 08:25:45;;;;;;;;;;;21.80;99.90;;;;;;5094266;28;19923;-72
2021/10/23 08:28:12;;;;;;;;;;;21.90;99.90;;;;;;5092920;28;19912;-70
2021/10/23 08:30:40;;;;;;;;;;;21.90;99.90;;;;;;5090966;28;19908;-74
2021/10/23 08:33:07;;;;;;;;;;;21.90;99.90;;;;;;5094411;28;19912;-76
2021/10/23 08:35:37;;;;;;;;;;;22.00;99.90;;;;;;5093915;28;19926;-74
2021/10/23 08:38:04;;;;;;;;;;;22.00;99.90;;;;;;5093057;28;19914;-74
2021/10/23 08:40:31;;;;;;;;;;;22.00;99.90;;;;;;5094095;28;19954;-73
2021/10/23 08:42:58;;;;;;;;;;;22.00;99.90;;;;;;5094526;28;19953;-75
2021/10/23 08:45:25;;;;;;;;;;;22.00;99.90;;;;;;5094614;28;20304;-73
2021/10/23 08:47:51;;;;;;;;;;;22.00;99.90;;;;;;5092274;28;19915;-74
2021/10/23 08:50:23;;;;;;;;;;;22.00;99.90;;;;;;5092361;28;19955;-73
2021/10/23 08:52:52;;;;;;;;;;;22.00;99.90;;;;;;5092443;28;20342;-73
2021/10/23 08:55:19;;;;;;;;;;;22.00;99.90;;;;;;5092024;28;19974;-73
2021/10/23 08:57:46;;;;;;;;;;;22.00;99.90;;;;;;5092459;28;19915;-73
2021/10/23 09:00:13;;;;;;;;;;;22.10;99.90;;;;;;5092291;28;19919;-72
2021/10/23 09:02:39;;;;;;;;;;;22.00;99.90;;;;;;5092444;28;19915;-74
2021/10/23 09:05:07;;;;;;;;;;;21.90;99.90;;;;;;5092388;28;19916;-74
2021/10/23 09:07:40;;;;;;;;;;;21.70;99.90;;;;;;5092275;28;20324;-76
2021/10/23 09:10:06;;;;;;;;;;;21.50;99.90;;;;;;5092404;28;20316;-75
2021/10/23 09:12:35;;;;;;;;;;;21.20;99.90;;;;;;5092311;28;20271;-75
2021/10/23 09:15:04;;;;;;;;;;;21.10;99.90;;;;;;5092228;28;20329;-75
2021/10/23 09:17:32;;;;;;;;;;;21.10;99.90;;;;;;5091932;28;20053;-75
2021/10/23 09:20:04;;;;;;;;;;;21.10;99.90;;;;;;5092333;28;19908;-74
2021/10/23 09:22:35;;;;;;;;;;;20.80;99.90;;;;;;5092485;28;19908;-75
2021/10/23 09:25:11;;;;;;;;;;;20.80;99.90;;;;;;5092552;28;20439;-73
2021/10/23 09:27:50;;;;;;;;;;;20.80;99.90;;;;;;5091865;28;19908;-75
2021/10/23 09:30:18;;;;;;;;;;;20.80;99.90;;;;;;5091931;28;19919;-74
2021/10/23 09:32:52;;;;;;;;;;;20.70;99.90;;;;;;5092096;28;19908;-74
2021/10/23 09:35:21;;;;;;;;;;;20.60;99.90;;;;;;5091938;28;19915;-74
2021/10/23 09:37:48;;;;;;;;;;;20.60;99.90;;;;;;5091980;28;19908;-76
2021/10/23 09:40:18;;;;;;;;;;;20.60;99.90;;;;;;5092358;28;19912;-76
2021/10/23 09:42:45;;;;;;;;;;;20.50;99.90;;;;;;5091919;28;19908;-75
2021/10/23 09:45:12;;;;;;;;;;;20.60;99.90;;;;;;5092199;28;20378;-74
2021/10/23 09:47:39;;;;;;;;;;;20.50;99.90;;;;;;5091801;28;19908;-74
2021/10/23 09:50:10;;;;;;;;;;;20.50;99.90;;;;;;5092109;28;19952;-75
2021/10/23 09:52:53;;;;;;;;;;;20.50;99.90;;;;;;5093244;28;19908;-74
2021/10/23 09:55:19;;;;;;;;;;;20.70;99.90;;;;;;5095719;28;19927;-74
2021/10/23 09:57:49;;;;;;;;;;;20.80;99.90;;;;;;5095626;28;19954;-73
2021/10/23 10:00:15;;;;;;;;;;;20.80;99.90;;;;;;5095513;28;19991;-76
2021/10/23 10:02:42;;;;;;;;;;;20.70;99.90;;;;;;5096687;28;19940;-73
2021/10/23 10:05:09;;;;;;;;;;;20.70;99.90;;;;;;5095442;28;19916;-75
2021/10/23 10:07:37;;;;;;;;;;;20.70;99.90;;;;;;5095606;28;19908;-76
2021/10/23 10:10:04;;;;;;;;;;;20.70;99.90;;;;;;5095323;28;20368;-76
2021/10/23 10:12:34;;;;;;;;;;;20.80;99.90;;;;;;5095582;28;19999;-78
2021/10/23 10:15:03;;;;;;;;;;;20.80;99.90;;;;;;5095040;28;20316;-78
2021/10/23 10:17:30;;;;;;;;;;;20.80;99.90;;;;;;5094878;28;19908;-74
2021/10/23 10:19:57;;;;;;;;;;;20.80;99.90;;;;;;5095032;28;19912;-77
2021/10/23 10:22:24;;;;;;;;;;;20.80;99.90;;;;;;5094805;28;19908;-74
2021/10/23 10:24:50;;;;;;;;;;;20.80;99.90;;;;;;5093454;28;19934;-71
2021/10/23 10:27:17;;;;;;;;;;;20.80;99.90;;;;;;5093466;28;19919;-75
2021/10/23 10:29:56;;;;;;;;;;;20.70;99.90;;;;;;5094501;28;19908;-72
2021/10/23 10:32:41;;;;;;;;;;;20.70;99.90;;;;;;5094658;28;19943;-72
2021/10/23 10:38:41;;;;;;;;;;;20.70;99.90;;;;;;5082100;28;19920;-72
2021/10/23 10:44:12;;;;;;;;;;;20.70;99.90;;;;;;5094607;28;19908;-74
2021/10/23 10:46:57;;;;;;;;;;;20.60;99.90;;;;;;5094384;28;20347;-75
2021/10/23 10:49:42;;;;;;;;;;;20.70;99.90;;;;;;5093135;28;19916;-75
2021/10/23 10:52:31;;;;;;;;;;;20.60;99.90;;;;;;5093161;28;20027;-75
2021/10/23 10:55:15;;;;;;;;;;;20.70;99.90;;;;;;5097205;28;19914;-76
2021/10/23 10:58:01;;;;;;;;;;;20.70;99.90;;;;;;5114266;28;19946;-75
2021/10/23 11:01:00;;;;;;;;;;;20.60;99.90;;;;;;5114558;28;19908;-74
2021/10/23 11:03:37;;;;;;;;;;;20.60;99.90;;;;;;5101602;28;20443;-76
2021/10/23 11:06:22;;;;;;;;;;;20.50;99.90;;;;;;5114104;28;20335;-76
2021/10/23 11:08:48;;;;;;;;;;;20.50;99.90;;;;;;5114678;28;19908;-76
2021/10/23 11:11:15;;;;;;;;;;;20.50;99.90;;;;;;5114292;28;20323;-77
2021/10/23 11:13:48;;;;;;;;;;;20.50;99.90;;;;;;5114210;28;19942;-75
2021/10/23 11:16:27;;;;;;;;;;;20.50;99.90;;;;;;5115182;28;20381;-74
2021/10/23 11:18:59;;;;;;;;;;;20.40;99.90;;;;;;5114496;28;20278;-74
2021/10/23 11:21:31;;;;;;;;;;;20.40;99.90;;;;;;5113634;28;19908;-75
2021/10/23 11:23:58;;;;;;;;;;;20.40;99.90;;;;;;5113315;28;19912;-76
2021/10/23 11:26:25;;;;;;;;;;;20.40;99.90;;;;;;5114203;28;19964;-73
2021/10/23 11:28:52;;;;;;;;;;;20.30;99.90;;;;;;5115141;28;20044;-75
2021/10/23 11:31:20;;;;;;;;;;;20.30;99.90;;;;;;5114019;28;19908;-75
2021/10/23 11:33:47;;;;;;;;;;;20.30;99.90;;;;;;5112436;28;20445;-75
2021/10/23 11:36:14;;;;;;;;;;;20.30;99.90;;;;;;5114895;28;19908;-72
2021/10/23 11:38:41;;;;;;;;;;;20.20;99.90;;;;;;5113798;28;19912;-75
2021/10/23 11:41:11;;;;;;;;;;;20.20;99.90;;;;;;5113696;27;19919;-74
2021/10/23 11:43:39;;;;;;;;;;;20.20;99.90;;;;;;5114618;28;19954;-72
2021/10/23 11:46:06;;;;;;;;;;;20.20;99.90;;;;;;5113738;28;19915;-74
2021/10/23 11:48:33;;;;;;;;;;;20.20;99.90;;;;;;5113837;28;19907;-75
2021/10/23 11:50:59;;;;;;;;;;;20.10;99.90;;;;;;5114278;28;20002;-74
2021/10/23 11:53:29;;;;;;;;;;;20.00;99.90;;;;;;5114207;27;20128;-73
2021/10/23 11:56:00;;;;;;;;;;;20.00;99.90;;;;;;5114105;28;19916;-77
2021/10/23 11:58:27;;;;;;;;;;;19.90;99.90;;;;;;5114886;28;19946;-76
2021/10/23 12:01:04;;;;;;;;;;;19.70;99.90;;;;;;5112805;28;19957;-74
2021/10/23 12:03:43;;;;;;;;;;;19.60;99.90;;;;;;5114098;28;19950;-76
2021/10/23 12:06:29;;;;;;;;;;;19.60;99.90;;;;;;5115611;28;19923;-75
2021/10/23 12:08:57;;;;;;;;;;;19.50;99.90;;;;;;5114638;28;19915;-75
2021/10/23 12:11:25;;;;;;;;;;;19.40;99.90;;;;;;5113404;28;20425;-75
2021/10/23 12:14:03;;;;;;;;;;;19.40;99.90;;;;;;5114565;28;19915;-75
2021/10/23 12:16:32;;;;;;;;;;;19.40;99.90;;;;;;5113055;28;19922;-76
2021/10/23 12:19:19;;;;;;;;;;;19.40;99.90;;;;;;5113027;28;19915;-75
2021/10/23 12:21:56;;;;;;;;;;;19.40;99.90;;;;;;5114883;28;19908;-76
2021/10/23 12:24:33;;;;;;;;;;;19.60;99.90;;;;;;5114224;28;19912;-76
2021/10/23 12:27:01;;;;;;;;;;;19.60;99.90;;;;;;5112403;28;19961;-75
2021/10/23 12:29:38;;;;;;;;;;;19.40;99.90;;;;;;5113993;28;19954;-76
2021/10/23 12:32:06;;;;;;;;;;;19.40;99.90;;;;;;5114467;28;19922;-76
2021/10/23 12:34:51;;;;;;;;;;;19.40;99.90;;;;;;5114178;28;20007;-78
2021/10/23 12:37:26;;;;;;;;;;;19.30;99.90;;;;;;5114607;28;19939;-76
2021/10/23 12:40:01;;;;;;;;;;;19.30;99.90;;;;;;5113817;28;19969;-74
2021/10/23 12:42:28;;;;;;;;;;;19.30;99.90;;;;;;5113921;28;19914;-76
2021/10/23 12:44:55;;;;;;;;;;;19.30;99.90;;;;;;5113626;28;19912;-75
2021/10/23 12:47:21;;;;;;;;;;;19.30;99.90;;;;;;5115369;28;19908;-77
2021/10/23 12:49:48;;;;;;;;;;;19.30;99.90;;;;;;5113408;28;19950;-75
2021/10/23 12:52:14;;;;;;;;;;;19.30;99.90;;;;;;5112966;28;20286;-75
2021/10/23 12:54:41;;;;;;;;;;;19.30;99.90;;;;;;5113050;28;19908;-75
2021/10/23 12:57:08;;;;;;;;;;;19.30;99.90;;;;;;5113104;28;19923;-74
2021/10/23 12:59:35;;;;;;;;;;;19.30;99.90;;;;;;5111363;28;19968;-75
2021/10/23 13:02:01;;;;;;;;;;;19.30;99.90;;;;;;5111833;28;19908;-77
2021/10/23 13:04:29;;;;;;;;;;;19.30;99.90;;;;;;5112742;28;19964;-77
2021/10/23 13:06:55;;;;;;;;;;;19.40;99.90;;;;;;5113035;28;19908;-77
2021/10/23 13:09:23;;;;;;;;;;;19.40;99.90;;;;;;5113039;28;19907;-77
2021/10/23 13:11:50;;;;;;;;;;;19.40;99.90;;;;;;5112606;28;20383;-75
2021/10/23 13:14:18;;;;;;;;;;;19.50;99.90;;;;;;5112607;28;20286;-76
2021/10/23 13:16:45;;;;;;;;;;;19.50;99.90;;;;;;5112615;28;20259;-77
2021/10/23 13:19:12;;;;;;;;;;;19.50;99.90;;;;;;5111678;28;19912;-75
2021/10/23 13:21:39;;;;;;;;;;;19.60;99.90;;;;;;5112770;28;19914;-76
2021/10/23 13:24:06;;;;;;;;;;;19.70;99.90;;;;;;5112631;28;19956;-76
2021/10/23 13:26:32;;;;;;;;;;;19.70;99.90;;;;;;5112726;28;20339;-76
2021/10/23 13:28:59;;;;;;;;;;;19.70;99.90;;;;;;5115897;28;19908;-76
2021/10/23 13:31:26;;;;;;;;;;;19.80;99.90;;;;;;5116777;27;19960;-74
2021/10/23 13:33:53;;;;;;;;;;;19.80;99.90;;;;;;5116330;28;20355;-76
2021/10/23 13:36:19;;;;;;;;;;;19.80;99.90;;;;;;5116410;28;19914;-74
2021/10/23 13:38:46;;;;;;;;;;;19.90;99.90;;;;;;5115370;28;19907;-75
2021/10/23 13:41:22;;;;;;;;;;;19.90;99.90;;;;;;5115756;28;19911;-75
2021/10/23 13:43:49;;;;;;;;;;;20.00;99.90;;;;;;5093430;28;19908;-75
2021/10/23 13:46:15;;;;;;;;;;;20.00;99.90;;;;;;5095915;28;19912;-76
2021/10/23 13:48:42;;;;;;;;;;;20.00;99.90;;;;;;5095728;28;20359;-75
2021/10/23 13:51:09;;;;;;;;;;;20.00;99.90;;;;;;5095793;28;19908;-76
2021/10/23 13:53:36;;;;;;;;;;;20.00;99.90;;;;;;5095450;28;19908;-75
2021/10/23 13:56:03;;;;;;;;;;;20.00;99.90;;;;;;5095717;28;19926;-74
2021/10/23 13:58:30;;;;;;;;;;;20.00;99.90;;;;;;5095260;28;19912;-76
2021/10/23 14:00:57;;;;;;;;;;;20.00;99.90;;;;;;5093794;28;19916;-75
2021/10/23 14:03:24;;;;;;;;;;;19.90;99.90;;;;;;5095624;28;20298;-75
2021/10/23 14:05:54;;;;;;;;;;;19.70;99.90;;;;;;5095348;28;19920;-74
2021/10/23 14:08:20;;;;;;;;;;;19.60;99.90;;;;;;5095074;28;19915;-75
2021/10/23 14:10:47;;;;;;;;;;;19.60;99.90;;;;;;5095242;28;19912;-75
2021/10/23 14:13:14;;;;;;;;;;;19.50;99.90;;;;;;5094140;28;20275;-76
2021/10/23 14:15:41;;;;;;;;;;;19.50;99.90;;;;;;5095368;28;19916;-74
2021/10/23 14:18:09;;;;;;;;;;;19.40;99.90;;;;;;5095590;28;19957;-76
2021/10/23 14:20:36;;;;;;;;;;;19.30;99.90;;;;;;5094034;28;19948;-77
2021/10/23 14:23:07;;;;;;;;;;;19.30;99.90;;;;;;5095411;28;20370;-76
2021/10/23 14:25:34;;;;;;;;;;;19.20;99.90;;;;;;5094984;28;19916;-76
2021/10/23 14:28:10;;;;;;;;;;;19.20;99.90;;;;;;5095390;28;19950;-77